SV1IW Athens current weather conditions

sailwx.info

Wind from 353 at 6 knots gusting 15

Air temperature 14.4° C
Dewpoint 7.0° C

Last reported at 2014-Oct-31 19:30 UTC.
Time now 2014-Nov-01 14:01 UTC

Location: N 37°58' E 023°43'.
View on Google Maps.

See reports from other nearby stations

  
Tides and Currents Weather Stations Pressure Air Temp Water Temp Dewpoint Dewpoint Depression Visibility Wind Speed Wind Dir Waves Ship Positions
date/time (UTC)wind fromknots sea level pressurealtimeterstation pressurevisibilityair tempwater tempwave heightnotes
2014-Oct-31 19:30 353 6 gusting 15 14.4
2014-Oct-31 19:00 349 7 gusting 13 14.4
2014-Oct-31 18:30 345 5 gusting 14 14.4
2014-Oct-31 18:00 347 7 gusting 15 14.4
2014-Oct-31 17:30 354 14.4
2014-Oct-31 01:01 350 15.0
2014-Oct-31 00:30 333 15.0
2014-Oct-31 00:00 341 15.0
2014-Oct-30 23:30 342 1 gusting 6 15.6
2014-Oct-30 23:00 270 1 gusting 5 15.6
2014-Oct-30 22:30 341 0 gusting 4 15.6
2014-Oct-30 22:00 341 16.1
2014-Oct-30 21:30 351 1 gusting 6 16.1
2014-Oct-30 21:00 346 1 gusting 6 16.7
2014-Oct-30 20:30 349 2 gusting 6 16.7
2014-Oct-30 20:00 317 0 gusting 5 16.7
2014-Oct-30 19:30 341 16.7
2014-Oct-30 19:00 285 16.7
2014-Oct-30 18:30 346 17.2
2014-Oct-30 18:00 347 4 gusting 6 17.2
2014-Oct-30 17:30 342 4 gusting 7 17.8
2014-Oct-30 17:00 005 4 gusting 10 17.8
2014-Oct-30 16:30 345 5 gusting 10 18.3
2014-Oct-30 16:00 348 4 gusting 6 18.3
2014-Oct-30 15:30 027 18.9
2014-Oct-30 15:00 262 19.4
2014-Oct-30 14:30 326 0 gusting 5 20.0
2014-Oct-30 14:00 301 0 gusting 5 20.6